Byars, OK

10:20 AM CST on February 27, 2015 (GMT -0600)
Lake View | Change Station
CLOSE
Current Station
Personal Weather Station
Location: Stratford, OK
Elevation: 1135 ft
Nearby Weather Stations
Active Advisory: Winter Weather Advisory

Elev 1135 ft 34.79 °N, 96.96 °W | Updated 22 seconds ago

Mostly Cloudy
Mostly Cloudy
19.6 °F
Feels Like 7 °F
N
11.5
Wind Variable Wind from NNE
Gusts 11.5 mph

Today
High -- | Low -- °F
--% Chance of Precip.
Yesterday
High -- | Low -- °F
Precip. -- in
7:00 AM 6:22 PM
Waxing Gibbous, 70% visible
Pressure 30.55 in
Visibility 10.0 miles
Clouds Overcast 4600 ft
Windchill 7 °F
Dew Point 8 °F
Humidity 59%
Rainfall 0.00 in
Snow Depth Not available.
UV 1 out of 12
Pollen 3.70 out of 12
Air Quality Not available.
Flu Activity Not available.
METAR KPVJ 271555Z AUTO 03012KT 10SM OVC046 M07/M15 A3055 RMK AO2 T10701148

More Conditions Fewer Conditions

Pressure 30.55 in
Visibility 10.0 miles
Clouds Overcast 4600 ft
Windchill 7 °F
Dew Point 8 °F
Humidity 59%
Rainfall 0.00 in
Snow Depth Not available.
UV 1 out of 12
Pollen 3.70 out of 12
Air Quality Not available.
Flu Activity Not available.
METAR KPVJ 271555Z AUTO 03012KT 10SM OVC046 M07/M15 A3055 RMK AO2 T10701148

More Conditions Fewer Conditions

10-Day Weather Forecast

Almanac

Astronomy

Feb. 27, 2015 Rise Set
Actual Time
Civil Twilight
Nautical Twilight
Astronomical Twilight
Moon
Length of Visible Light
Length of Day
Tomorrow will be .
, % of the Moon is Illuminated

Today's Extremes

State Highs State Lows

Community

WunderPhotos

Upload Photos

1,800,732 photos uploaded!

WunderBlogs® & News

Nearby

Air Quality

  Air Quality AQ Index Pollutant
Not available.

Snow Depth

Station Depth Elevation

Earthquake Activity

City Distance Mag. Time & Date
Minimum magnitude displayed is 2.5.

Coastal Water Temperatures

Place Temperature

Nearby Weather Stations

Winter Weather Advisory
Statement as of 3:20 AM CST on February 27, 2015

... Winter Weather Advisory remains in effect from 6 am this
morning to 6 PM CST this evening...

* timing: light snow will move across western Oklahoma and
adjacent parts of North Texas through the day.

* Main impact: 1 to 3 inches of snow.

* Other impacts: slick and hazardous roads are expected.

Precautionary/preparedness actions...

Be careful if you have to travel. Even small amounts of ice and
snow can make roads and sidewalks slick and dangerous.